Seabourn Odyssey — C6XC6 — position and weather

sailwx.info

Track history (hours):
 
Tides and Currents Weather Stations Pressure Air Temp Water Temp Dewpoint Dewpoint Depression Visibility Wind Speed Wind Dir Waves Ship Positions

Seabourn Odyssey

Last reported at 2019-Aug-17 16:18 UTC. Time now 2019-Aug-20 09:32 UTC.
Position N 37°35' E 023°43'.

Length 198 m; draft 6.7 m.

Type: Ship. MMSI: 309416000.

Date/timePositionNaut miles runAvg speedWind from/ knotsBaromVisibWave heightAir tempDewpointWater temp
2019-Aug-17 16:18N 37°35' E 023°43'2 7.6
2019-Aug-17 15:59N 37°37' E 023°44'4 7.9
2019-Aug-17 15:30N 37°41' E 023°42'4 7.9
2019-Aug-17 15:00N 37°44' E 023°40'612.8
2019-Aug-17 14:30N 37°50' E 023°37'612.3
2019-Aug-17 14:00N 37°56' E 023°37'0 0.4
2019-Aug-17 13:30N 37°56' E 023°37'0 0.0
2019-Aug-17 13:00N 37°56' E 023°37'0 0.0
2019-Aug-17 12:30N 37°56' E 023°37'0 0.0
2019-Aug-17 12:00N 37°56' E 023°37'0 0.0
2019-Aug-17 11:30N 37°56' E 023°37'0 0.0
2019-Aug-17 10:57N 37°56' E 023°37'0 0.0
2019-Aug-17 10:30N 37°56' E 023°37'0 0.0
2019-Aug-17 10:00N 37°56' E 023°37'0 0.0
2019-Aug-17 09:30N 37°56' E 023°37'0 0.0
2019-Aug-17 09:00N 37°56' E 023°37'0 0.0
2019-Aug-17 08:30N 37°56' E 023°37'0 0.0
2019-Aug-17 08:00N 37°56' E 023°37'0 0.0
2019-Aug-17 07:30N 37°56' E 023°37'0 0.0
2019-Aug-17 07:00N 37°56' E 023°37'0 0.0
2019-Aug-17 06:27N 37°56' E 023°37'0 0.0
2019-Aug-17 06:00N 37°56' E 023°37'0 0.0
2019-Aug-17 05:30N 37°56' E 023°37'0 0.0
2019-Aug-17 04:57N 37°56' E 023°37'0 0.0
2019-Aug-17 04:27N 37°56' E 023°37'0 0.0
2019-Aug-17 04:00N 37°56' E 023°37'0 0.0
2019-Aug-17 03:30N 37°56' E 023°37'0 0.0
2019-Aug-17 03:00N 37°56' E 023°37'0 0.0
2019-Aug-17 02:18N 37°56' E 023°37'0 0.0
2019-Aug-17 02:00N 37°56' E 023°37'0 0.0
2019-Aug-17 01:30N 37°56' E 023°37'1 1.6
2019-Aug-17 01:01N 37°56' E 023°37'510.5
2019-Aug-17 00:31N 37°51' E 023°39'714.8
2019-Aug-17 00:00N 37°44' E 023°43'714.9
2019-Aug-16 23:30N 37°37' E 023°47'815.2
2019-Aug-16 22:58N 37°30' E 023°50'48 8.5
2019-Aug-16 17:19N 37°15' E 024°47'2 8.0
2019-Aug-16 17:00N 37°18' E 024°49'4 8.0
2019-Aug-16 16:30N 37°20' E 024°53'4 8.5
2019-Aug-16 16:00N 37°21' E 024°58'4 8.2
2019-Aug-16 15:30N 37°23' E 025°02'3 6.8
2019-Aug-16 15:00N 37°26' E 025°01'3 1.6
2019-Aug-16 13:05N 37°26' E 024°57'0 0.0
2019-Aug-16 04:21N 37°26' E 024°57'2 5.7
2019-Aug-16 04:01N 37°26' E 024°59'714.1
2019-Aug-16 03:31N 37°22' E 025°07'714.4
2019-Aug-16 03:01N 37°19' E 025°15'714.6
2019-Aug-16 02:31N 37°17' E 025°23'714.9
2019-Aug-16 02:01N 37°15' E 025°32'714.4
2019-Aug-16 01:31N 37°13' E 025°41'109 6.5
2019-Aug-15 08:41N 36°38' E 027°50'0 0.2
2019-Aug-15 08:26N 36°38' E 027°50'22 1.1
2019-Aug-14 12:03N 36°27' E 028°14'  
2019-Aug-11 12:17N 36°01' E 014°19'0 0.0
2019-Aug-11 11:56N 36°01' E 014°19'1 0.1
2019-Aug-11 04:24N 36°01' E 014°20'3 6.9
2019-Aug-11 04:00N 36°02' E 014°23'3 5.2
2019-Aug-11 03:30N 36°04' E 014°25'3 6.6
2019-Aug-11 03:00N 36°07' E 014°26'4 7.9
2019-Aug-11 02:30N 36°10' E 014°30'4 7.9
2019-Aug-11 02:00N 36°12' E 014°34'4 8.0
2019-Aug-11 01:30N 36°15' E 014°37'3 6.6
2019-Aug-11 01:00N 36°13' E 014°41'4 7.2
2019-Aug-11 00:30N 36°10' E 014°43'7 7.0
2019-Aug-10 23:34N 36°06' E 014°49'0 6.5
2019-Aug-10 23:30N 36°05' E 014°50'3 6.4
2019-Aug-10 23:00N 36°03' E 014°47'4 7.6
2019-Aug-10 22:30N 36°01' E 014°43'4 7.6
2019-Aug-10 22:00N 35°59' E 014°39'4 7.7
2019-Aug-10 21:30N 35°57' E 014°35'4 7.4
2019-Aug-10 21:00N 35°54' E 014°32'1 0.1
2019-Aug-10 04:45N 35°55' E 014°33'3 8.5
2019-Aug-10 04:24N 35°57' E 014°35'3 8.5
2019-Aug-10 04:00N 35°60' E 014°38'7 8.4
2019-Aug-10 03:07N 36°06' E 014°43'  
Track history (hours):
 
Tides and Currents Weather Stations Pressure Air Temp Water Temp Dewpoint Dewpoint Depression Visibility Wind Speed Wind Dir Waves Ship Positions

Seabourn Odyssey

Last reported at 2019-Aug-17 16:18 UTC. Time now 2019-Aug-20 09:32 UTC.
Position N 37°35' E 023°43'.

Length 198 m; draft 6.7 m.

Type: Ship. MMSI: 309416000.

Date/timePositionNaut miles runAvg speedWind from/ knotsBaromVisibWave heightAir tempDewpointWater temp
2019-Aug-17 16:18N 37°35' E 023°43'2 7.6
2019-Aug-17 15:59N 37°37' E 023°44'4 7.9
2019-Aug-17 15:30N 37°41' E 023°42'4 7.9
2019-Aug-17 15:00N 37°44' E 023°40'612.8
2019-Aug-17 14:30N 37°50' E 023°37'612.3
2019-Aug-17 14:00N 37°56' E 023°37'0 0.4
2019-Aug-17 13:30N 37°56' E 023°37'0 0.0
2019-Aug-17 13:00N 37°56' E 023°37'0 0.0
2019-Aug-17 12:30N 37°56' E 023°37'0 0.0
2019-Aug-17 12:00N 37°56' E 023°37'0 0.0
2019-Aug-17 11:30N 37°56' E 023°37'0 0.0
2019-Aug-17 10:57N 37°56' E 023°37'0 0.0
2019-Aug-17 10:30N 37°56' E 023°37'0 0.0
2019-Aug-17 10:00N 37°56' E 023°37'0 0.0
2019-Aug-17 09:30N 37°56' E 023°37'0 0.0
2019-Aug-17 09:00N 37°56' E 023°37'0 0.0
2019-Aug-17 08:30N 37°56' E 023°37'0 0.0
2019-Aug-17 08:00N 37°56' E 023°37'0 0.0
2019-Aug-17 07:30N 37°56' E 023°37'0 0.0
2019-Aug-17 07:00N 37°56' E 023°37'0 0.0
2019-Aug-17 06:27N 37°56' E 023°37'0 0.0
2019-Aug-17 06:00N 37°56' E 023°37'0 0.0
2019-Aug-17 05:30N 37°56' E 023°37'0 0.0
2019-Aug-17 04:57N 37°56' E 023°37'0 0.0
2019-Aug-17 04:27N 37°56' E 023°37'0 0.0
2019-Aug-17 04:00N 37°56' E 023°37'0 0.0
2019-Aug-17 03:30N 37°56' E 023°37'0 0.0
2019-Aug-17 03:00N 37°56' E 023°37'0 0.0
2019-Aug-17 02:18N 37°56' E 023°37'0 0.0
2019-Aug-17 02:00N 37°56' E 023°37'0 0.0
2019-Aug-17 01:30N 37°56' E 023°37'1 1.6
2019-Aug-17 01:01N 37°56' E 023°37'510.5
2019-Aug-17 00:31N 37°51' E 023°39'714.8
2019-Aug-17 00:00N 37°44' E 023°43'714.9
2019-Aug-16 23:30N 37°37' E 023°47'815.2
2019-Aug-16 22:58N 37°30' E 023°50'48 8.5
2019-Aug-16 17:19N 37°15' E 024°47'2 8.0
2019-Aug-16 17:00N 37°18' E 024°49'4 8.0
2019-Aug-16 16:30N 37°20' E 024°53'4 8.5
2019-Aug-16 16:00N 37°21' E 024°58'4 8.2
2019-Aug-16 15:30N 37°23' E 025°02'3 6.8
2019-Aug-16 15:00N 37°26' E 025°01'3 1.6
2019-Aug-16 13:05N 37°26' E 024°57'0 0.0
2019-Aug-16 04:21N 37°26' E 024°57'2 5.7
2019-Aug-16 04:01N 37°26' E 024°59'714.1
2019-Aug-16 03:31N 37°22' E 025°07'714.4
2019-Aug-16 03:01N 37°19' E 025°15'714.6
2019-Aug-16 02:31N 37°17' E 025°23'714.9
2019-Aug-16 02:01N 37°15' E 025°32'714.4
2019-Aug-16 01:31N 37°13' E 025°41'109 6.5
2019-Aug-15 08:41N 36°38' E 027°50'0 0.2
2019-Aug-15 08:26N 36°38' E 027°50'22 1.1
2019-Aug-14 12:03N 36°27' E 028°14'  
2019-Aug-11 12:17N 36°01' E 014°19'0 0.0
2019-Aug-11 11:56N 36°01' E 014°19'1 0.1
2019-Aug-11 04:24N 36°01' E 014°20'3 6.9
2019-Aug-11 04:00N 36°02' E 014°23'3 5.2
2019-Aug-11 03:30N 36°04' E 014°25'3 6.6
2019-Aug-11 03:00N 36°07' E 014°26'4 7.9
2019-Aug-11 02:30N 36°10' E 014°30'4 7.9
2019-Aug-11 02:00N 36°12' E 014°34'4 8.0
2019-Aug-11 01:30N 36°15' E 014°37'3 6.6
2019-Aug-11 01:00N 36°13' E 014°41'4 7.2
2019-Aug-11 00:30N 36°10' E 014°43'7 7.0
2019-Aug-10 23:34N 36°06' E 014°49'0 6.5
2019-Aug-10 23:30N 36°05' E 014°50'3 6.4
2019-Aug-10 23:00N 36°03' E 014°47'4 7.6
2019-Aug-10 22:30N 36°01' E 014°43'4 7.6
2019-Aug-10 22:00N 35°59' E 014°39'4 7.7
2019-Aug-10 21:30N 35°57' E 014°35'4 7.4
2019-Aug-10 21:00N 35°54' E 014°32'1 0.1
2019-Aug-10 04:45N 35°55' E 014°33'3 8.5
2019-Aug-10 04:24N 35°57' E 014°35'3 8.5
2019-Aug-10 04:00N 35°60' E 014°38'7 8.4
2019-Aug-10 03:07N 36°06' E 014°43'  

Dump ship's entire track history